sensor_id;sensor_type;location;lat;lon;timestamp;pressure;altitude;pressure_sealevel;temperature;humidity
77739;BME280;66904;59.926;30.404;2023-09-07T00:01:06;102551.94;;;25.76;44.20
77739;BME280;66904;59.926;30.404;2023-09-07T00:06:08;102556.50;;;25.76;44.45
77739;BME280;66904;59.926;30.404;2023-09-07T00:11:09;102546.84;;;25.73;44.09
77739;BME280;66904;59.926;30.404;2023-09-07T00:16:12;102553.13;;;25.74;44.16
77739;BME280;66904;59.926;30.404;2023-09-07T00:21:13;102551.44;;;25.73;44.00
77739;BME280;66904;59.926;30.404;2023-09-07T00:26:13;102552.47;;;25.72;44.05
77739;BME280;66904;59.926;30.404;2023-09-07T00:31:14;102561.41;;;25.72;44.19
77739;BME280;66904;59.926;30.404;2023-09-07T00:36:15;102558.72;;;25.72;44.42
77739;BME280;66904;59.926;30.404;2023-09-07T00:41:15;102563.47;;;25.70;44.31
77739;BME280;66904;59.926;30.404;2023-09-07T00:46:16;102570.59;;;25.71;44.47
77739;BME280;66904;59.926;30.404;2023-09-07T00:51:16;102570.59;;;25.71;44.15
77739;BME280;66904;59.926;30.404;2023-09-07T00:56:17;102578.88;;;25.69;44.12
77739;BME280;66904;59.926;30.404;2023-09-07T01:01:18;102576.16;;;25.69;44.14
77739;BME280;66904;59.926;30.404;2023-09-07T01:06:24;102578.03;;;25.69;43.90
77739;BME280;66904;59.926;30.404;2023-09-07T01:11:27;102571.09;;;25.66;43.93
77739;BME280;66904;59.926;30.404;2023-09-07T01:16:27;102569.91;;;25.61;44.32
77739;BME280;66904;59.926;30.404;2023-09-07T01:21:34;102578.69;;;25.63;44.19
77739;BME280;66904;59.926;30.404;2023-09-07T01:26:36;102579.72;;;25.62;44.46
77739;BME280;66904;59.926;30.404;2023-09-07T01:31:40;102584.13;;;25.63;44.15
77739;BME280;66904;59.926;30.404;2023-09-07T01:36:41;102589.53;;;25.63;44.31
77739;BME280;66904;59.926;30.404;2023-09-07T01:41:41;102589.88;;;25.60;43.90
77739;BME280;66904;59.926;30.404;2023-09-07T01:46:42;102588.03;;;25.60;44.14
77739;BME280;66904;59.926;30.404;2023-09-07T01:51:42;102594.44;;;25.59;44.33
77739;BME280;66904;59.926;30.404;2023-09-07T01:56:43;102594.44;;;25.59;44.35
77739;BME280;66904;59.926;30.404;2023-09-07T02:01:43;102602.75;;;25.58;43.93
77739;BME280;66904;59.926;30.404;2023-09-07T02:06:44;102582.88;;;25.49;44.16
77739;BME280;66904;59.926;30.404;2023-09-07T02:11:44;102594.97;;;25.55;44.44
77739;BME280;66904;59.926;30.404;2023-09-07T02:16:45;102601.06;;;25.57;44.19
77739;BME280;66904;59.926;30.404;2023-09-07T02:21:45;102604.78;;;25.56;44.25
77739;BME280;66904;59.926;30.404;2023-09-07T02:26:46;102612.91;;;25.56;43.98
77739;BME280;66904;59.926;30.404;2023-09-07T02:31:46;102617.47;;;25.55;43.85
77739;BME280;66904;59.926;30.404;2023-09-07T02:36:47;102609.34;;;25.55;43.85
77739;BME280;66904;59.926;30.404;2023-09-07T02:41:47;102597.69;;;25.55;44.43
77739;BME280;66904;59.926;30.404;2023-09-07T02:46:48;102605.81;;;25.55;44.24
77739;BME280;66904;59.926;30.404;2023-09-07T02:51:49;102604.09;;;25.54;43.92
77739;BME280;66904;59.926;30.404;2023-09-07T02:56:49;102611.38;;;25.53;43.91
77739;BME280;66904;59.926;30.404;2023-09-07T03:01:50;102606.97;;;25.52;43.89
77739;BME280;66904;59.926;30.404;2023-09-07T03:06:50;102603.44;;;25.52;44.09
77739;BME280;66904;59.926;30.404;2023-09-07T03:11:51;102615.09;;;25.52;44.09
77739;BME280;66904;59.926;30.404;2023-09-07T03:16:51;102627.81;;;25.52;43.90
77739;BME280;66904;59.926;30.404;2023-09-07T03:21:52;102640.69;;;25.50;43.75
77739;BME280;66904;59.926;30.404;2023-09-07T03:26:54;102631.47;;;25.43;44.02
77739;BME280;66904;59.926;30.404;2023-09-07T03:31:54;102650.81;;;25.48;44.12
77739;BME280;66904;59.926;30.404;2023-09-07T03:36:55;102652.66;;;25.47;43.96
77739;BME280;66904;59.926;30.404;2023-09-07T03:41:56;102668.06;;;25.47;43.96
77739;BME280;66904;59.926;30.404;2023-09-07T03:46:56;102668.94;;;25.47;44.25
77739;BME280;66904;59.926;30.404;2023-09-07T03:51:57;102670.78;;;25.47;44.18
77739;BME280;66904;59.926;30.404;2023-09-07T03:56:57;102679.09;;;25.45;44.16
77739;BME280;66904;59.926;30.404;2023-09-07T04:01:58;102672.13;;;25.43;43.87
77739;BME280;66904;59.926;30.404;2023-09-07T04:06:59;102675.88;;;25.42;43.81
77739;BME280;66904;59.926;30.404;2023-09-07T04:11:59;102685.34;;;25.46;43.91
77739;BME280;66904;59.926;30.404;2023-09-07T04:17:01;102688.47;;;25.51;44.39
77739;BME280;66904;59.926;30.404;2023-09-07T04:22:01;102692.53;;;25.55;44.37
77739;BME280;66904;59.926;30.404;2023-09-07T04:27:03;102678.66;;;25.58;44.21
77739;BME280;66904;59.926;30.404;2023-09-07T04:32:04;102674.25;;;25.57;44.40
77739;BME280;66904;59.926;30.404;2023-09-07T04:37:05;102697.78;;;25.56;44.19
77739;BME280;66904;59.926;30.404;2023-09-07T04:42:06;102686.78;;;25.58;44.77
77739;BME280;66904;59.926;30.404;2023-09-07T04:47:06;102693.75;;;25.60;44.68
77739;BME280;66904;59.926;30.404;2023-09-07T04:52:07;102695.28;;;25.63;44.99
77739;BME280;66904;59.926;30.404;2023-09-07T04:57:09;102696.66;;;25.67;44.62
77739;BME280;66904;59.926;30.404;2023-09-07T05:02:09;102710.72;;;25.70;45.06
77739;BME280;66904;59.926;30.404;2023-09-07T05:07:12;102707.84;;;25.72;44.90
77739;BME280;66904;59.926;30.404;2023-09-07T05:12:12;102711.59;;;25.71;45.29
77739;BME280;66904;59.926;30.404;2023-09-07T05:17:14;102716.47;;;25.67;45.21
77739;BME280;66904;59.926;30.404;2023-09-07T05:22:15;102715.09;;;25.63;45.38
77739;BME280;66904;59.926;30.404;2023-09-07T05:27:16;102703.06;;;25.58;45.77
77739;BME280;66904;59.926;30.404;2023-09-07T05:32:16;102706.09;;;25.55;45.31
77739;BME280;66904;59.926;30.404;2023-09-07T05:37:17;102695.59;;;25.52;45.78
77739;BME280;66904;59.926;30.404;2023-09-07T05:42:17;102701.00;;;25.52;45.60
77739;BME280;66904;59.926;30.404;2023-09-07T05:47:18;102704.53;;;25.52;45.49
77739;BME280;66904;59.926;30.404;2023-09-07T05:52:18;102718.28;;;25.51;45.58
77739;BME280;66904;59.926;30.404;2023-09-07T05:57:19;102711.16;;;25.50;45.46
77739;BME280;66904;59.926;30.404;2023-09-07T06:02:20;102715.69;;;25.49;45.85
77739;BME280;66904;59.926;30.404;2023-09-07T06:07:20;102707.72;;;25.48;45.57
77739;BME280;66904;59.926;30.404;2023-09-07T06:12:21;102698.06;;;25.45;45.72
77739;BME280;66904;59.926;30.404;2023-09-07T06:17:22;102696.50;;;25.43;45.75
77739;BME280;66904;59.926;30.404;2023-09-07T06:22:22;102703.97;;;25.41;45.35
77739;BME280;66904;59.926;30.404;2023-09-07T06:27:23;102699.56;;;25.40;45.33
77739;BME280;66904;59.926;30.404;2023-09-07T06:32:23;102702.44;;;25.38;45.60
77739;BME280;66904;59.926;30.404;2023-09-07T06:37:24;102706.16;;;25.37;45.37
77739;BME280;66904;59.926;30.404;2023-09-07T06:42:25;102707.16;;;25.36;45.02
77739;BME280;66904;59.926;30.404;2023-09-07T06:47:26;102720.88;;;25.35;45.27
77739;BME280;66904;59.926;30.404;2023-09-07T06:52:27;102720.88;;;25.35;45.07
77739;BME280;66904;59.926;30.404;2023-09-07T06:57:27;102724.75;;;25.32;44.79
77739;BME280;66904;59.926;30.404;2023-09-07T07:02:28;102734.44;;;25.35;45.17
77739;BME280;66904;59.926;30.404;2023-09-07T07:07:29;102732.72;;;25.34;44.98
77739;BME280;66904;59.926;30.404;2023-09-07T07:12:30;102739.13;;;25.33;44.94
77739;BME280;66904;59.926;30.404;2023-09-07T07:17:34;102745.41;;;25.33;44.96
77739;BME280;66904;59.926;30.404;2023-09-07T07:22:35;102751.69;;;25.34;44.66
77739;BME280;66904;59.926;30.404;2023-09-07T07:27:36;102748.97;;;25.34;45.09
77739;BME280;66904;59.926;30.404;2023-09-07T07:32:37;102744.41;;;25.34;44.78
77739;BME280;66904;59.926;30.404;2023-09-07T07:37:37;102745.09;;;25.36;44.68
77739;BME280;66904;59.926;30.404;2023-09-07T07:42:38;102745.94;;;25.37;44.40
77739;BME280;66904;59.926;30.404;2023-09-07T07:47:42;102729.69;;;25.37;44.06
77739;BME280;66904;59.926;30.404;2023-09-07T07:52:42;102720.03;;;25.42;44.13
77739;BME280;66904;59.926;30.404;2023-09-07T07:57:43;102721.59;;;25.45;44.06
77739;BME280;66904;59.926;30.404;2023-09-07T08:02:44;102724.00;;;25.48;44.51
77739;BME280;66904;59.926;30.404;2023-09-07T08:07:44;102738.53;;;25.47;44.35
77739;BME280;66904;59.926;30.404;2023-09-07T08:12:45;102731.09;;;25.49;44.38
77739;BME280;66904;59.926;30.404;2023-09-07T08:17:46;102730.97;;;25.50;44.29
77739;BME280;66904;59.926;30.404;2023-09-07T08:22:47;102724.69;;;25.50;43.99
77739;BME280;66904;59.926;30.404;2023-09-07T08:27:48;102712.53;;;25.54;43.87
77739;BME280;66904;59.926;30.404;2023-09-07T08:32:50;102709.81;;;25.54;44.12
77739;BME280;66904;59.926;30.404;2023-09-07T08:37:51;102713.19;;;25.56;44.05
77739;BME280;66904;59.926;30.404;2023-09-07T08:42:52;102720.31;;;25.57;43.97
77739;BME280;66904;59.926;30.404;2023-09-07T08:47:54;102715.75;;;25.57;43.54
77739;BME280;66904;59.926;30.404;2023-09-07T08:52:56;102709.34;;;25.58;43.94
77739;BME280;66904;59.926;30.404;2023-09-07T08:57:59;102712.19;;;25.57;43.46
77739;BME280;66904;59.926;30.404;2023-09-07T09:03:00;102706.63;;;25.58;44.15
77739;BME280;66904;59.926;30.404;2023-09-07T09:08:04;102706.63;;;25.58;43.36
77739;BME280;66904;59.926;30.404;2023-09-07T09:13:05;102700.34;;;25.58;43.92
77739;BME280;66904;59.926;30.404;2023-09-07T09:18:13;102692.53;;;25.55;43.89
77739;BME280;66904;59.926;30.404;2023-09-07T09:23:14;102702.72;;;25.61;43.87
77739;BME280;66904;59.926;30.404;2023-09-07T09:28:15;102698.69;;;25.65;43.55
77739;BME280;66904;59.926;30.404;2023-09-07T09:33:19;102701.22;;;25.66;43.63
77739;BME280;66904;59.926;30.404;2023-09-07T09:38:20;102698.50;;;25.66;43.90
77739;BME280;66904;59.926;30.404;2023-09-07T09:43:21;102696.66;;;25.67;44.03
77739;BME280;66904;59.926;30.404;2023-09-07T09:48:22;102697.31;;;25.69;43.74
77739;BME280;66904;59.926;30.404;2023-09-07T09:53:23;102690.91;;;25.70;43.86
77739;BME280;66904;59.926;30.404;2023-09-07T09:58:24;102692.59;;;25.71;43.61
77739;BME280;66904;59.926;30.404;2023-09-07T10:03:57;102698.53;;;25.75;43.56
77739;BME280;66904;59.926;30.404;2023-09-07T10:09:07;102686.00;;;25.74;43.55
77739;BME280;66904;59.926;30.404;2023-09-07T10:14:10;102696.16;;;25.72;43.67
77739;BME280;66904;59.926;30.404;2023-09-07T10:19:20;102693.47;;;25.72;43.23
77739;BME280;66904;59.926;30.404;2023-09-07T10:24:26;102689.88;;;25.71;43.29
77739;BME280;66904;59.926;30.404;2023-09-07T10:29:27;102676.47;;;25.69;43.25
77739;BME280;66904;59.926;30.404;2023-09-07T10:34:37;102674.63;;;25.70;43.04
77739;BME280;66904;59.926;30.404;2023-09-07T10:39:40;102676.66;;;25.68;43.40
77739;BME280;66904;59.926;30.404;2023-09-07T10:44:43;102673.78;;;25.69;43.60
77739;BME280;66904;59.926;30.404;2023-09-07T10:49:43;102671.75;;;25.72;43.62
77739;BME280;66904;59.926;30.404;2023-09-07T10:54:44;102676.00;;;25.74;43.69
77739;BME280;66904;59.926;30.404;2023-09-07T10:59:45;102669.56;;;25.75;43.21
77739;BME280;66904;59.926;30.404;2023-09-07T11:04:46;102664.97;;;25.76;43.39
77739;BME280;66904;59.926;30.404;2023-09-07T11:09:51;102671.44;;;25.75;43.15
77739;BME280;66904;59.926;30.404;2023-09-07T11:14:53;102671.44;;;25.75;42.97
77739;BME280;66904;59.926;30.404;2023-09-07T11:19:54;102674.13;;;25.75;43.17
77739;BME280;66904;59.926;30.404;2023-09-07T11:24:54;102673.09;;;25.76;43.53
77739;BME280;66904;59.926;30.404;2023-09-07T11:29:56;102676.84;;;25.75;43.19
77739;BME280;66904;59.926;30.404;2023-09-07T11:34:57;102666.84;;;25.75;43.15
77739;BME280;66904;59.926;30.404;2023-09-07T11:39:57;102663.28;;;25.75;42.96
77739;BME280;66904;59.926;30.404;2023-09-07T11:44:58;102656.16;;;25.74;43.49
77739;BME280;66904;59.926;30.404;2023-09-07T11:49:58;102658.88;;;25.74;42.95
77739;BME280;66904;59.926;30.404;2023-09-07T11:54:59;102651.75;;;25.73;43.07
77739;BME280;66904;59.926;30.404;2023-09-07T12:00:00;102660.72;;;25.73;43.57
77739;BME280;66904;59.926;30.404;2023-09-07T12:05:00;102651.59;;;25.74;43.23
77739;BME280;66904;59.926;30.404;2023-09-07T12:10:03;102645.47;;;25.72;43.18
77739;BME280;66904;59.926;30.404;2023-09-07T12:15:05;102641.94;;;25.72;42.89
77739;BME280;66904;59.926;30.404;2023-09-07T12:20:06;102636.66;;;25.70;42.95
77739;BME280;66904;59.926;30.404;2023-09-07T12:25:10;102630.56;;;25.68;43.43
77739;BME280;66904;59.926;30.404;2023-09-07T12:30:11;102617.16;;;25.66;42.94
77739;BME280;66904;59.926;30.404;2023-09-07T12:35:13;102619.88;;;25.66;42.97
77739;BME280;66904;59.926;30.404;2023-09-07T12:40:15;102618.19;;;25.65;43.04
77739;BME280;66904;59.926;30.404;2023-09-07T12:45:16;102612.75;;;25.65;42.90
77739;BME280;66904;59.926;30.404;2023-09-07T12:50:16;102608.38;;;25.64;43.29
77739;BME280;66904;59.926;30.404;2023-09-07T12:55:17;102611.06;;;25.64;43.33
77739;BME280;66904;59.926;30.404;2023-09-07T13:00:19;102602.44;;;25.61;43.27
77739;BME280;66904;59.926;30.404;2023-09-07T13:05:19;102603.09;;;25.63;43.08
77739;BME280;66904;59.926;30.404;2023-09-07T13:10:20;102614.66;;;25.65;43.45
77739;BME280;66904;59.926;30.404;2023-09-07T13:15:20;102607.34;;;25.65;43.41
77739;BME280;66904;59.926;30.404;2023-09-07T13:20:24;102602.09;;;25.64;42.89
77739;BME280;66904;59.926;30.404;2023-09-07T13:25:25;102598.38;;;25.65;43.26
77739;BME280;66904;59.926;30.404;2023-09-07T13:30:26;102587.88;;;25.70;43.57
77739;BME280;66904;59.926;30.404;2023-09-07T13:35:26;102587.38;;;25.75;43.37
77739;BME280;66904;59.926;30.404;2023-09-07T13:40:27;102568.72;;;25.80;43.36
77739;BME280;66904;59.926;30.404;2023-09-07T13:45:29;102566.88;;;25.80;43.15
77739;BME280;66904;59.926;30.404;2023-09-07T13:50:30;102562.28;;;25.81;43.54
77739;BME280;66904;59.926;30.404;2023-09-07T13:55:31;102552.47;;;25.88;43.26
77739;BME280;66904;59.926;30.404;2023-09-07T14:00:31;102568.22;;;25.92;44.12
77739;BME280;66904;59.926;30.404;2023-09-07T14:05:32;102548.06;;;25.95;44.44
77739;BME280;66904;59.926;30.404;2023-09-07T14:10:32;102555.66;;;25.99;44.55
77739;BME280;66904;59.926;30.404;2023-09-07T14:15:33;102538.88;;;25.96;44.80
77739;BME280;66904;59.926;30.404;2023-09-07T14:20:34;102548.38;;;26.00;44.12
77739;BME280;66904;59.926;30.404;2023-09-07T14:25:34;102546.69;;;25.99;44.12
77739;BME280;66904;59.926;30.404;2023-09-07T14:30:35;102540.75;;;25.95;44.65
77739;BME280;66904;59.926;30.404;2023-09-07T14:35:36;102533.16;;;25.91;43.88
77739;BME280;66904;59.926;30.404;2023-09-07T14:40:36;102522.63;;;25.88;44.08
77739;BME280;66904;59.926;30.404;2023-09-07T14:45:37;102522.97;;;25.85;44.20
77739;BME280;66904;59.926;30.404;2023-09-07T14:50:37;102519.75;;;25.81;44.31
77739;BME280;66904;59.926;30.404;2023-09-07T14:55:38;102517.38;;;25.78;43.97
77739;BME280;66904;59.926;30.404;2023-09-07T15:00:39;102518.53;;;25.76;44.04
77739;BME280;66904;59.926;30.404;2023-09-07T15:05:39;102515.16;;;25.74;43.77
77739;BME280;66904;59.926;30.404;2023-09-07T15:10:40;102510.94;;;25.71;43.96
77739;BME280;66904;59.926;30.404;2023-09-07T15:15:41;102514.84;;;25.68;44.16
77739;BME280;66904;59.926;30.404;2023-09-07T15:20:42;102517.38;;;25.70;43.92
77739;BME280;66904;59.926;30.404;2023-09-07T15:25:42;102509.09;;;25.72;43.91
77739;BME280;66904;59.926;30.404;2023-09-07T15:30:43;102507.03;;;25.74;44.26
77739;BME280;66904;59.926;30.404;2023-09-07T15:35:43;102501.47;;;25.75;44.41
77739;BME280;66904;59.926;30.404;2023-09-07T15:40:44;102495.34;;;25.81;44.16
77739;BME280;66904;59.926;30.404;2023-09-07T15:45:47;102499.56;;;25.84;44.87
77739;BME280;66904;59.926;30.404;2023-09-07T15:50:47;102486.88;;;25.84;44.84
77739;BME280;66904;59.926;30.404;2023-09-07T15:55:48;102484.31;;;25.91;44.67
77739;BME280;66904;59.926;30.404;2023-09-07T16:00:48;102493.63;;;25.96;44.89
77739;BME280;66904;59.926;30.404;2023-09-07T16:05:49;102475.34;;;25.98;44.80
77739;BME280;66904;59.926;30.404;2023-09-07T16:10:54;102469.41;;;25.95;45.76
77739;BME280;66904;59.926;30.404;2023-09-07T16:15:54;102478.38;;;26.03;45.56
77739;BME280;66904;59.926;30.404;2023-09-07T16:20:55;102470.88;;;26.05;45.77
77739;BME280;66904;59.926;30.404;2023-09-07T16:25:55;102464.47;;;26.06;45.58
77739;BME280;66904;59.926;30.404;2023-09-07T16:30:56;102458.03;;;26.07;45.44
77739;BME280;66904;59.926;30.404;2023-09-07T16:35:58;102464.28;;;26.08;45.68
77739;BME280;66904;59.926;30.404;2023-09-07T16:41:04;102452.59;;;26.07;46.06
77739;BME280;66904;59.926;30.404;2023-09-07T16:46:05;102453.59;;;26.06;45.23
77739;BME280;66904;59.926;30.404;2023-09-07T16:51:06;102438.38;;;25.97;45.48
77739;BME280;66904;59.926;30.404;2023-09-07T16:56:06;102445.16;;;26.01;45.37
77739;BME280;66904;59.926;30.404;2023-09-07T17:01:07;102453.44;;;26.00;44.79
77739;BME280;66904;59.926;30.404;2023-09-07T17:06:09;102461.44;;;26.01;45.07
77739;BME280;66904;59.926;30.404;2023-09-07T17:11:10;102448.38;;;26.05;45.33
77739;BME280;66904;59.926;30.404;2023-09-07T17:16:10;102463.25;;;26.09;45.70
77739;BME280;66904;59.926;30.404;2023-09-07T17:21:11;102447.97;;;26.16;45.63
77739;BME280;66904;59.926;30.404;2023-09-07T17:26:12;102442.38;;;26.26;45.09
77739;BME280;66904;59.926;30.404;2023-09-07T17:31:16;102434.75;;;26.29;45.47
77739;BME280;66904;59.926;30.404;2023-09-07T17:36:18;102448.09;;;26.39;44.88
77739;BME280;66904;59.926;30.404;2023-09-07T17:41:18;102433.88;;;26.45;44.94
77739;BME280;66904;59.926;30.404;2023-09-07T17:46:23;102422.66;;;26.48;45.35
77739;BME280;66904;59.926;30.404;2023-09-07T17:51:24;102418.19;;;26.55;45.25
77739;BME280;66904;59.926;30.404;2023-09-07T17:56:24;102423.28;;;26.58;45.10
77739;BME280;66904;59.926;30.404;2023-09-07T18:01:25;102425.63;;;26.61;45.23
77739;BME280;66904;59.926;30.404;2023-09-07T18:06:26;102426.78;;;26.66;44.87
77739;BME280;66904;59.926;30.404;2023-09-07T18:11:26;102421.19;;;26.68;45.35
77739;BME280;66904;59.926;30.404;2023-09-07T18:16:27;102413.72;;;26.70;45.37
77739;BME280;66904;59.926;30.404;2023-09-07T18:21:27;102410.63;;;26.73;45.41
77739;BME280;66904;59.926;30.404;2023-09-07T18:26:29;102408.03;;;26.80;45.73
77739;BME280;66904;59.926;30.404;2023-09-07T18:31:31;102399.91;;;26.80;45.34
77739;BME280;66904;59.926;30.404;2023-09-07T18:36:32;102388.75;;;26.75;45.57
77739;BME280;66904;59.926;30.404;2023-09-07T18:41:32;102407.56;;;26.76;45.45
77739;BME280;66904;59.926;30.404;2023-09-07T18:46:33;102403.31;;;26.82;45.70
77739;BME280;66904;59.926;30.404;2023-09-07T18:51:34;102406.34;;;26.87;46.04
77739;BME280;66904;59.926;30.404;2023-09-07T18:56:34;102412.25;;;26.90;45.99
77739;BME280;66904;59.926;30.404;2023-09-07T19:01:35;102416.00;;;26.89;46.30
77739;BME280;66904;59.926;30.404;2023-09-07T19:06:36;102390.91;;;26.87;46.06
77739;BME280;66904;59.926;30.404;2023-09-07T19:11:37;102384.63;;;26.87;45.42
77739;BME280;66904;59.926;30.404;2023-09-07T19:16:38;102391.41;;;26.83;45.68
77739;BME280;66904;59.926;30.404;2023-09-07T19:21:39;102360.53;;;26.76;45.17
77739;BME280;66904;59.926;30.404;2023-09-07T19:26:40;102369.28;;;26.63;45.18
77739;BME280;66904;59.926;30.404;2023-09-07T19:31:41;102392.34;;;26.67;45.64
77739;BME280;66904;59.926;30.404;2023-09-07T19:36:42;102381.06;;;26.78;45.08
77739;BME280;66904;59.926;30.404;2023-09-07T19:41:43;102363.72;;;26.87;45.28
77739;BME280;66904;59.926;30.404;2023-09-07T19:46:43;102361.78;;;26.96;45.72
77739;BME280;66904;59.926;30.404;2023-09-07T19:51:44;102354.66;;;26.95;45.53
77739;BME280;66904;59.926;30.404;2023-09-07T19:56:44;102357.03;;;26.98;45.64
77739;BME280;66904;59.926;30.404;2023-09-07T20:01:58;102354.66;;;26.95;46.21
77739;BME280;66904;59.926;30.404;2023-09-07T20:06:59;102344.53;;;26.89;46.24
77739;BME280;66904;59.926;30.404;2023-09-07T20:12:00;102345.38;;;26.89;46.42
77739;BME280;66904;59.926;30.404;2023-09-07T20:17:02;102343.66;;;26.88;46.40
77739;BME280;66904;59.926;30.404;2023-09-07T20:22:03;102347.59;;;26.86;46.41
77739;BME280;66904;59.926;30.404;2023-09-07T20:27:04;102331.66;;;26.83;46.66
77739;BME280;66904;59.926;30.404;2023-09-07T20:32:05;102334.72;;;26.80;46.98
77739;BME280;66904;59.926;30.404;2023-09-07T20:37:05;102322.75;;;26.66;46.21
77739;BME280;66904;59.926;30.404;2023-09-07T20:42:06;102328.78;;;26.53;46.40
77739;BME280;66904;59.926;30.404;2023-09-07T20:47:07;102321.84;;;26.51;47.21
77739;BME280;66904;59.926;30.404;2023-09-07T20:52:08;102319.13;;;26.51;47.66
77739;BME280;66904;59.926;30.404;2023-09-07T20:57:08;102305.19;;;26.54;47.18
77739;BME280;66904;59.926;30.404;2023-09-07T21:02:09;102285.16;;;26.55;47.21
77739;BME280;66904;59.926;30.404;2023-09-07T21:07:09;102270.75;;;26.54;47.83
77739;BME280;66904;59.926;30.404;2023-09-07T21:12:10;102282.63;;;26.53;47.36
77739;BME280;66904;59.926;30.404;2023-09-07T21:17:10;102285.50;;;26.52;47.50
77739;BME280;66904;59.926;30.404;2023-09-07T21:22:12;102282.38;;;26.40;47.33
77739;BME280;66904;59.926;30.404;2023-09-07T21:27:12;102298.47;;;26.42;47.86
77739;BME280;66904;59.926;30.404;2023-09-07T21:32:13;102300.53;;;26.40;47.41
77739;BME280;66904;59.926;30.404;2023-09-07T21:37:14;102308.19;;;26.36;47.17
77739;BME280;66904;59.926;30.404;2023-09-07T21:42:14;102302.09;;;26.34;47.19
77739;BME280;66904;59.926;30.404;2023-09-07T21:47:15;102295.13;;;26.32;46.95
77739;BME280;66904;59.926;30.404;2023-09-07T21:52:16;102294.47;;;26.30;46.81
77739;BME280;66904;59.926;30.404;2023-09-07T21:57:16;102285.69;;;26.28;46.76
77739;BME280;66904;59.926;30.404;2023-09-07T22:02:22;102275.56;;;26.22;46.62
77739;BME280;66904;59.926;30.404;2023-09-07T22:07:23;102281.81;;;26.22;46.39
77739;BME280;66904;59.926;30.404;2023-09-07T22:12:23;102287.41;;;26.20;46.80
77739;BME280;66904;59.926;30.404;2023-09-07T22:17:24;102282.47;;;26.16;46.16
77739;BME280;66904;59.926;30.404;2023-09-07T22:22:25;102284.34;;;26.15;46.23
77739;BME280;66904;59.926;30.404;2023-09-07T22:27:26;102283.53;;;26.15;46.65
77739;BME280;66904;59.926;30.404;2023-09-07T22:32:27;102280.13;;;26.13;46.63
77739;BME280;66904;59.926;30.404;2023-09-07T22:37:27;102286.56;;;26.12;46.31
77739;BME280;66904;59.926;30.404;2023-09-07T22:42:28;102264.22;;;26.10;46.18
77739;BME280;66904;59.926;30.404;2023-09-07T22:47:29;102267.94;;;26.09;46.57
77739;BME280;66904;59.926;30.404;2023-09-07T22:52:29;102256.44;;;26.07;46.04
77739;BME280;66904;59.926;30.404;2023-09-07T22:57:30;102254.25;;;26.02;46.06
77739;BME280;66904;59.926;30.404;2023-09-07T23:02:32;102245.25;;;26.02;46.40
77739;BME280;66904;59.926;30.404;2023-09-07T23:07:32;102238.31;;;25.99;45.96
77739;BME280;66904;59.926;30.404;2023-09-07T23:12:33;102230.38;;;25.98;45.92
77739;BME280;66904;59.926;30.404;2023-09-07T23:17:34;102225.31;;;25.95;46.25
77739;BME280;66904;59.926;30.404;2023-09-07T23:22:35;102211.91;;;25.93;46.45
77739;BME280;66904;59.926;30.404;2023-09-07T23:27:36;102196.84;;;25.91;45.93
77739;BME280;66904;59.926;30.404;2023-09-07T23:32:39;102207.84;;;25.89;46.13
77739;BME280;66904;59.926;30.404;2023-09-07T23:37:40;102205.34;;;25.88;46.19
77739;BME280;66904;59.926;30.404;2023-09-07T23:42:41;102205.34;;;25.88;46.55
77739;BME280;66904;59.926;30.404;2023-09-07T23:47:42;102186.72;;;25.85;46.42
77739;BME280;66904;59.926;30.404;2023-09-07T23:52:43;102191.09;;;25.86;46.55
77739;BME280;66904;59.926;30.404;2023-09-07T23:57:43;102175.88;;;25.85;46.22
